< < Back
Terminal Aerodrome Forecast


Current Version              Previous Versions:   1  2  3  4  5  6  7  8  9  

Terminal Aerodrome Forecast

058
FTUS42 KGSP 281139
TAFAND
TAF
KAND 281139Z 2812/2912 VRB04KT P6SM -SHRA OVC050
      TEMPO 2813/2817 4SM -TSRA OVC040CB
     FM281700 03007KT P6SM VCTS BKN060CB
     FM282100 07006KT P6SM BKN150
     FM290000 00000KT P6SM BKN250=

Latest METAR

990
SAUS70 KWBC 282000 RRL
MTRAND
METAR KAND 281956Z AUTO 08006KT 10SM BKN120 28/18 A2999 RMK AO2 SLP146
T02830178


USA.gov is the U.S. government's official web portal to all federal, state and local government web resources and services.